sensor_id;sensor_type;location;lat;lon;timestamp;P1;durP1;ratioP1;P2;durP2;ratioP2
31306;SDS011;17935;51.120;13.132;2024-02-15T00:02:19;3.58;;;3.05;;
31306;SDS011;17935;51.120;13.132;2024-02-15T00:04:45;4.35;;;3.22;;
31306;SDS011;17935;51.120;13.132;2024-02-15T00:07:10;5.25;;;3.55;;
31306;SDS011;17935;51.120;13.132;2024-02-15T00:09:36;4.43;;;3.55;;
31306;SDS011;17935;51.120;13.132;2024-02-15T00:12:02;4.75;;;3.58;;
31306;SDS011;17935;51.120;13.132;2024-02-15T00:14:27;6.15;;;4.00;;
31306;SDS011;17935;51.120;13.132;2024-02-15T00:16:53;4.75;;;3.42;;
31306;SDS011;17935;51.120;13.132;2024-02-15T00:19:19;6.13;;;3.97;;
31306;SDS011;17935;51.120;13.132;2024-02-15T00:21:46;4.85;;;3.65;;
31306;SDS011;17935;51.120;13.132;2024-02-15T00:24:12;8.63;;;4.10;;
31306;SDS011;17935;51.120;13.132;2024-02-15T00:26:39;4.45;;;3.63;;
31306;SDS011;17935;51.120;13.132;2024-02-15T00:29:05;4.82;;;3.70;;
31306;SDS011;17935;51.120;13.132;2024-02-15T00:31:31;5.22;;;3.80;;
31306;SDS011;17935;51.120;13.132;2024-02-15T00:33:57;4.68;;;3.60;;
31306;SDS011;17935;51.120;13.132;2024-02-15T00:36:24;6.65;;;3.55;;
31306;SDS011;17935;51.120;13.132;2024-02-15T00:38:50;4.40;;;3.70;;
31306;SDS011;17935;51.120;13.132;2024-02-15T00:41:16;5.60;;;3.83;;
31306;SDS011;17935;51.120;13.132;2024-02-15T00:43:42;4.88;;;3.95;;
31306;SDS011;17935;51.120;13.132;2024-02-15T00:46:08;4.43;;;3.63;;
31306;SDS011;17935;51.120;13.132;2024-02-15T00:48:33;5.00;;;3.50;;
31306;SDS011;17935;51.120;13.132;2024-02-15T00:50:59;4.22;;;3.47;;
31306;SDS011;17935;51.120;13.132;2024-02-15T00:53:25;4.90;;;3.60;;
31306;SDS011;17935;51.120;13.132;2024-02-15T00:55:51;12.15;;;5.70;;
31306;SDS011;17935;51.120;13.132;2024-02-15T00:58:16;3.90;;;3.53;;
31306;SDS011;17935;51.120;13.132;2024-02-15T01:00:42;3.67;;;3.30;;
31306;SDS011;17935;51.120;13.132;2024-02-15T01:03:07;5.55;;;3.47;;
31306;SDS011;17935;51.120;13.132;2024-02-15T01:05:33;6.88;;;3.90;;
31306;SDS011;17935;51.120;13.132;2024-02-15T01:07:59;4.90;;;3.72;;
31306;SDS011;17935;51.120;13.132;2024-02-15T01:10:25;8.30;;;3.58;;
31306;SDS011;17935;51.120;13.132;2024-02-15T01:12:51;3.33;;;3.03;;
31306;SDS011;17935;51.120;13.132;2024-02-15T01:15:17;3.67;;;3.28;;
31306;SDS011;17935;51.120;13.132;2024-02-15T01:17:46;4.50;;;2.72;;
31306;SDS011;17935;51.120;13.132;2024-02-15T01:20:11;4.70;;;3.30;;
31306;SDS011;17935;51.120;13.132;2024-02-15T01:22:37;3.65;;;3.20;;
31306;SDS011;17935;51.120;13.132;2024-02-15T01:25:02;2.97;;;2.67;;
31306;SDS011;17935;51.120;13.132;2024-02-15T01:27:28;3.70;;;2.95;;
31306;SDS011;17935;51.120;13.132;2024-02-15T01:29:55;4.43;;;2.65;;
31306;SDS011;17935;51.120;13.132;2024-02-15T01:32:23;4.63;;;3.30;;
31306;SDS011;17935;51.120;13.132;2024-02-15T01:34:50;2.58;;;2.38;;
31306;SDS011;17935;51.120;13.132;2024-02-15T01:37:18;2.58;;;2.35;;
31306;SDS011;17935;51.120;13.132;2024-02-15T01:39:45;3.15;;;2.85;;
31306;SDS011;17935;51.120;13.132;2024-02-15T01:42:11;3.20;;;2.78;;
31306;SDS011;17935;51.120;13.132;2024-02-15T01:44:39;5.25;;;2.95;;
31306;SDS011;17935;51.120;13.132;2024-02-15T01:47:05;2.40;;;2.20;;
31306;SDS011;17935;51.120;13.132;2024-02-15T01:49:31;2.83;;;2.20;;
31306;SDS011;17935;51.120;13.132;2024-02-15T01:51:57;3.97;;;2.00;;
31306;SDS011;17935;51.120;13.132;2024-02-15T01:54:25;2.45;;;2.10;;
31306;SDS011;17935;51.120;13.132;2024-02-15T01:56:52;2.83;;;2.45;;
31306;SDS011;17935;51.120;13.132;2024-02-15T01:59:19;2.47;;;2.25;;
31306;SDS011;17935;51.120;13.132;2024-02-15T02:01:47;2.50;;;2.30;;
31306;SDS011;17935;51.120;13.132;2024-02-15T02:04:13;3.00;;;2.10;;
31306;SDS011;17935;51.120;13.132;2024-02-15T02:06:39;2.33;;;1.88;;
31306;SDS011;17935;51.120;13.132;2024-02-15T02:09:05;2.47;;;1.88;;
31306;SDS011;17935;51.120;13.132;2024-02-15T02:11:37;4.45;;;2.00;;
31306;SDS011;17935;51.120;13.132;2024-02-15T02:14:03;1.75;;;1.48;;
31306;SDS011;17935;51.120;13.132;2024-02-15T02:16:29;1.40;;;1.30;;
31306;SDS011;17935;51.120;13.132;2024-02-15T02:19:00;1.50;;;1.40;;
31306;SDS011;17935;51.120;13.132;2024-02-15T02:21:26;2.08;;;1.83;;
31306;SDS011;17935;51.120;13.132;2024-02-15T02:23:58;1.70;;;1.60;;
31306;SDS011;17935;51.120;13.132;2024-02-15T02:26:26;1.70;;;1.60;;
31306;SDS011;17935;51.120;13.132;2024-02-15T02:28:51;1.90;;;1.52;;
31306;SDS011;17935;51.120;13.132;2024-02-15T02:31:20;2.17;;;1.60;;
31306;SDS011;17935;51.120;13.132;2024-02-15T02:33:55;1.60;;;1.48;;
31306;SDS011;17935;51.120;13.132;2024-02-15T02:36:23;2.33;;;1.63;;
31306;SDS011;17935;51.120;13.132;2024-02-15T02:38:51;2.10;;;1.63;;
31306;SDS011;17935;51.120;13.132;2024-02-15T02:41:17;1.35;;;1.25;;
31306;SDS011;17935;51.120;13.132;2024-02-15T02:43:44;1.90;;;1.63;;
31306;SDS011;17935;51.120;13.132;2024-02-15T02:46:10;1.65;;;1.50;;
31306;SDS011;17935;51.120;13.132;2024-02-15T02:48:39;1.50;;;1.38;;
31306;SDS011;17935;51.120;13.132;2024-02-15T02:51:06;1.50;;;1.40;;
31306;SDS011;17935;51.120;13.132;2024-02-15T02:53:34;1.33;;;1.23;;
31306;SDS011;17935;51.120;13.132;2024-02-15T02:56:00;1.50;;;1.40;;
31306;SDS011;17935;51.120;13.132;2024-02-15T02:58:27;1.90;;;1.55;;
31306;SDS011;17935;51.120;13.132;2024-02-15T03:00:52;1.42;;;1.33;;
31306;SDS011;17935;51.120;13.132;2024-02-15T03:03:18;4.15;;;1.60;;
31306;SDS011;17935;51.120;13.132;2024-02-15T03:05:48;1.42;;;1.25;;
31306;SDS011;17935;51.120;13.132;2024-02-15T03:08:13;1.58;;;1.48;;
31306;SDS011;17935;51.120;13.132;2024-02-15T03:10:40;1.80;;;1.40;;
31306;SDS011;17935;51.120;13.132;2024-02-15T03:13:05;3.10;;;1.50;;
31306;SDS011;17935;51.120;13.132;2024-02-15T03:15:32;1.52;;;1.42;;
31306;SDS011;17935;51.120;13.132;2024-02-15T03:17:59;2.55;;;2.05;;
31306;SDS011;17935;51.120;13.132;2024-02-15T03:20:27;1.38;;;1.27;;
31306;SDS011;17935;51.120;13.132;2024-02-15T03:22:53;3.13;;;1.77;;
31306;SDS011;17935;51.120;13.132;2024-02-15T03:25:20;1.30;;;1.20;;
31306;SDS011;17935;51.120;13.132;2024-02-15T03:27:48;1.42;;;1.33;;
31306;SDS011;17935;51.120;13.132;2024-02-15T03:30:16;1.77;;;1.67;;
31306;SDS011;17935;51.120;13.132;2024-02-15T03:32:42;1.60;;;1.50;;
31306;SDS011;17935;51.120;13.132;2024-02-15T03:35:08;1.88;;;1.63;;
31306;SDS011;17935;51.120;13.132;2024-02-15T03:37:33;1.67;;;1.58;;
31306;SDS011;17935;51.120;13.132;2024-02-15T03:40:02;1.63;;;1.52;;
31306;SDS011;17935;51.120;13.132;2024-02-15T03:42:29;1.52;;;1.40;;
31306;SDS011;17935;51.120;13.132;2024-02-15T03:44:55;1.75;;;1.65;;
31306;SDS011;17935;51.120;13.132;2024-02-15T03:47:21;2.17;;;1.98;;
31306;SDS011;17935;51.120;13.132;2024-02-15T03:49:46;2.88;;;1.85;;
31306;SDS011;17935;51.120;13.132;2024-02-15T03:52:12;2.00;;;1.80;;
31306;SDS011;17935;51.120;13.132;2024-02-15T03:54:41;2.05;;;1.52;;
31306;SDS011;17935;51.120;13.132;2024-02-15T03:57:08;1.92;;;1.48;;
31306;SDS011;17935;51.120;13.132;2024-02-15T03:59:33;2.78;;;1.83;;
31306;SDS011;17935;51.120;13.132;2024-02-15T04:02:00;3.58;;;1.88;;
31306;SDS011;17935;51.120;13.132;2024-02-15T04:04:28;2.08;;;1.50;;
31306;SDS011;17935;51.120;13.132;2024-02-15T04:06:55;3.67;;;1.65;;
31306;SDS011;17935;51.120;13.132;2024-02-15T04:09:21;2.17;;;2.00;;
31306;SDS011;17935;51.120;13.132;2024-02-15T04:11:47;2.08;;;1.75;;
31306;SDS011;17935;51.120;13.132;2024-02-15T04:14:15;1.88;;;1.67;;
31306;SDS011;17935;51.120;13.132;2024-02-15T04:16:43;2.35;;;2.00;;
31306;SDS011;17935;51.120;13.132;2024-02-15T04:19:08;1.90;;;1.80;;
31306;SDS011;17935;51.120;13.132;2024-02-15T04:21:35;2.05;;;1.85;;
31306;SDS011;17935;51.120;13.132;2024-02-15T04:24:00;2.63;;;1.88;;
31306;SDS011;17935;51.120;13.132;2024-02-15T04:26:26;2.03;;;1.85;;
31306;SDS011;17935;51.120;13.132;2024-02-15T04:28:52;2.88;;;1.90;;
31306;SDS011;17935;51.120;13.132;2024-02-15T04:31:18;2.47;;;2.27;;
31306;SDS011;17935;51.120;13.132;2024-02-15T04:33:44;2.45;;;1.88;;
31306;SDS011;17935;51.120;13.132;2024-02-15T04:36:09;9.90;;;2.00;;
31306;SDS011;17935;51.120;13.132;2024-02-15T04:38:37;2.63;;;2.03;;
31306;SDS011;17935;51.120;13.132;2024-02-15T04:41:04;1.92;;;1.73;;
31306;SDS011;17935;51.120;13.132;2024-02-15T05:34:47;2.03;;;1.60;;
31306;SDS011;17935;51.120;13.132;2024-02-15T05:37:13;1.60;;;1.40;;
31306;SDS011;17935;51.120;13.132;2024-02-15T05:39:40;1.60;;;1.40;;
31306;SDS011;17935;51.120;13.132;2024-02-15T07:24:11;3.80;;;2.72;;
31306;SDS011;17935;51.120;13.132;2024-02-15T07:26:51;4.45;;;2.60;;
31306;SDS011;17935;51.120;13.132;2024-02-15T07:29:29;2.47;;;2.25;;
31306;SDS011;17935;51.120;13.132;2024-02-15T07:49:21;3.72;;;2.83;;
31306;SDS011;17935;51.120;13.132;2024-02-15T07:51:49;4.22;;;2.90;;
31306;SDS011;17935;51.120;13.132;2024-02-15T07:54:18;6.13;;;2.92;;
31306;SDS011;17935;51.120;13.132;2024-02-15T07:56:50;4.65;;;2.95;;
31306;SDS011;17935;51.120;13.132;2024-02-15T07:59:23;3.10;;;2.80;;
31306;SDS011;17935;51.120;13.132;2024-02-15T08:01:51;5.82;;;2.90;;
31306;SDS011;17935;51.120;13.132;2024-02-15T08:04:20;3.10;;;2.70;;
31306;SDS011;17935;51.120;13.132;2024-02-15T08:06:51;3.47;;;2.72;;
31306;SDS011;17935;51.120;13.132;2024-02-15T08:09:19;4.05;;;3.03;;
31306;SDS011;17935;51.120;13.132;2024-02-15T08:11:49;4.25;;;3.58;;
31306;SDS011;17935;51.120;13.132;2024-02-15T08:14:25;3.15;;;2.83;;
31306;SDS011;17935;51.120;13.132;2024-02-15T08:17:00;6.85;;;3.05;;
31306;SDS011;17935;51.120;13.132;2024-02-15T08:19:28;4.30;;;2.80;;
31306;SDS011;17935;51.120;13.132;2024-02-15T08:26:49;4.03;;;3.03;;
31306;SDS011;17935;51.120;13.132;2024-02-15T08:29:15;3.65;;;2.55;;
31306;SDS011;17935;51.120;13.132;2024-02-15T08:31:51;3.30;;;2.78;;
31306;SDS011;17935;51.120;13.132;2024-02-15T08:34:19;4.22;;;2.92;;
31306;SDS011;17935;51.120;13.132;2024-02-15T08:36:50;3.80;;;2.78;;
31306;SDS011;17935;51.120;13.132;2024-02-15T08:39:23;3.78;;;2.65;;
31306;SDS011;17935;51.120;13.132;2024-02-15T08:41:50;3.42;;;2.67;;
31306;SDS011;17935;51.120;13.132;2024-02-15T08:44:18;5.18;;;2.80;;
31306;SDS011;17935;51.120;13.132;2024-02-15T08:46:45;2.80;;;2.50;;
31306;SDS011;17935;51.120;13.132;2024-02-15T08:49:11;3.08;;;2.65;;
31306;SDS011;17935;51.120;13.132;2024-02-15T08:51:38;3.80;;;2.80;;
31306;SDS011;17935;51.120;13.132;2024-02-15T08:54:20;3.20;;;2.65;;
31306;SDS011;17935;51.120;13.132;2024-02-15T08:56:57;6.57;;;2.93;;
31306;SDS011;17935;51.120;13.132;2024-02-15T08:59:23;4.05;;;2.53;;
31306;SDS011;17935;51.120;13.132;2024-02-15T09:01:52;3.33;;;2.47;;
31306;SDS011;17935;51.120;13.132;2024-02-15T09:04:21;4.68;;;2.80;;
31306;SDS011;17935;51.120;13.132;2024-02-15T09:06:49;3.42;;;2.40;;
31306;SDS011;17935;51.120;13.132;2024-02-15T09:09:16;3.28;;;2.50;;
31306;SDS011;17935;51.120;13.132;2024-02-15T09:11:44;2.90;;;2.30;;
31306;SDS011;17935;51.120;13.132;2024-02-15T09:14:13;5.25;;;3.10;;
31306;SDS011;17935;51.120;13.132;2024-02-15T09:16:46;3.53;;;2.90;;
31306;SDS011;17935;51.120;13.132;2024-02-15T09:19:15;6.65;;;2.90;;
31306;SDS011;17935;51.120;13.132;2024-02-15T09:21:40;3.05;;;2.75;;
31306;SDS011;17935;51.120;13.132;2024-02-15T09:24:11;3.13;;;2.45;;
31306;SDS011;17935;51.120;13.132;2024-02-15T09:26:44;3.42;;;2.70;;
31306;SDS011;17935;51.120;13.132;2024-02-15T09:29:20;4.47;;;3.03;;
31306;SDS011;17935;51.120;13.132;2024-02-15T09:31:48;4.22;;;2.85;;
31306;SDS011;17935;51.120;13.132;2024-02-15T09:34:14;4.93;;;3.08;;
31306;SDS011;17935;51.120;13.132;2024-02-15T09:36:39;5.82;;;3.03;;
31306;SDS011;17935;51.120;13.132;2024-02-15T09:39:05;6.25;;;3.25;;
31306;SDS011;17935;51.120;13.132;2024-02-15T09:41:31;4.20;;;2.80;;
31306;SDS011;17935;51.120;13.132;2024-02-15T09:43:58;4.32;;;2.85;;
31306;SDS011;17935;51.120;13.132;2024-02-15T09:46:26;2.83;;;2.53;;
31306;SDS011;17935;51.120;13.132;2024-02-15T09:48:52;4.30;;;2.83;;
31306;SDS011;17935;51.120;13.132;2024-02-15T09:51:27;5.43;;;3.10;;
31306;SDS011;17935;51.120;13.132;2024-02-15T09:53:56;3.85;;;2.80;;
31306;SDS011;17935;51.120;13.132;2024-02-15T09:56:23;3.00;;;2.55;;
31306;SDS011;17935;51.120;13.132;2024-02-15T09:58:54;4.22;;;3.13;;
31306;SDS011;17935;51.120;13.132;2024-02-15T10:01:26;5.60;;;3.38;;
31306;SDS011;17935;51.120;13.132;2024-02-15T10:03:56;6.15;;;3.17;;
31306;SDS011;17935;51.120;13.132;2024-02-15T10:06:24;3.55;;;2.75;;
31306;SDS011;17935;51.120;13.132;2024-02-15T10:08:52;3.60;;;2.78;;
31306;SDS011;17935;51.120;13.132;2024-02-15T10:11:18;5.32;;;3.10;;
31306;SDS011;17935;51.120;13.132;2024-02-15T10:13:46;5.22;;;2.92;;
31306;SDS011;17935;51.120;13.132;2024-02-15T10:16:16;3.53;;;3.00;;
31306;SDS011;17935;51.120;13.132;2024-02-15T10:18:43;2.83;;;2.50;;
31306;SDS011;17935;51.120;13.132;2024-02-15T10:21:25;3.85;;;2.63;;
31306;SDS011;17935;51.120;13.132;2024-02-15T10:24:05;7.85;;;2.80;;
31306;SDS011;17935;51.120;13.132;2024-02-15T10:26:32;2.97;;;2.67;;
31306;SDS011;17935;51.120;13.132;2024-02-15T10:29:09;3.63;;;2.60;;
31306;SDS011;17935;51.120;13.132;2024-02-15T10:31:39;8.32;;;2.92;;
31306;SDS011;17935;51.120;13.132;2024-02-15T10:34:06;3.95;;;2.72;;
31306;SDS011;17935;51.120;13.132;2024-02-15T10:36:33;3.33;;;2.97;;
31306;SDS011;17935;51.120;13.132;2024-02-15T10:39:15;4.97;;;3.05;;
31306;SDS011;17935;51.120;13.132;2024-02-15T10:41:51;7.78;;;3.30;;
31306;SDS011;17935;51.120;13.132;2024-02-15T10:44:18;3.05;;;2.53;;
31306;SDS011;17935;51.120;13.132;2024-02-15T10:46:46;3.47;;;2.72;;
31306;SDS011;17935;51.120;13.132;2024-02-15T10:49:21;3.10;;;2.58;;
31306;SDS011;17935;51.120;13.132;2024-02-15T10:51:59;5.85;;;3.00;;
31306;SDS011;17935;51.120;13.132;2024-02-15T10:54:47;3.97;;;2.45;;
31306;SDS011;17935;51.120;13.132;2024-02-15T10:57:17;3.97;;;2.60;;
31306;SDS011;17935;51.120;13.132;2024-02-15T10:59:56;5.00;;;2.70;;
31306;SDS011;17935;51.120;13.132;2024-02-15T11:04:55;2.75;;;2.17;;
31306;SDS011;17935;51.120;13.132;2024-02-15T11:07:28;3.03;;;2.20;;
31306;SDS011;17935;51.120;13.132;2024-02-15T11:09:56;5.22;;;2.47;;
31306;SDS011;17935;51.120;13.132;2024-02-15T11:12:24;2.30;;;2.10;;
31306;SDS011;17935;51.120;13.132;2024-02-15T11:14:51;3.17;;;2.42;;
31306;SDS011;17935;51.120;13.132;2024-02-15T11:20:02;3.92;;;2.40;;
31306;SDS011;17935;51.120;13.132;2024-02-15T11:22:35;5.33;;;2.27;;
31306;SDS011;17935;51.120;13.132;2024-02-15T11:25:02;3.38;;;2.30;;
31306;SDS011;17935;51.120;13.132;2024-02-15T11:27:37;2.60;;;2.10;;
31306;SDS011;17935;51.120;13.132;2024-02-15T11:30:06;2.03;;;1.88;;
31306;SDS011;17935;51.120;13.132;2024-02-15T11:32:38;4.82;;;2.75;;
31306;SDS011;17935;51.120;13.132;2024-02-15T11:35:06;2.65;;;2.33;;
31306;SDS011;17935;51.120;13.132;2024-02-15T11:43:44;2.55;;;1.88;;
31306;SDS011;17935;51.120;13.132;2024-02-15T11:46:23;4.30;;;2.55;;
31306;SDS011;17935;51.120;13.132;2024-02-15T11:48:50;2.63;;;1.90;;
31306;SDS011;17935;51.120;13.132;2024-02-15T11:51:28;3.45;;;1.65;;
31306;SDS011;17935;51.120;13.132;2024-02-15T11:54:10;2.67;;;2.00;;
31306;SDS011;17935;51.120;13.132;2024-02-15T11:56:55;2.45;;;2.13;;
31306;SDS011;17935;51.120;13.132;2024-02-15T12:07:47;4.15;;;2.17;;
31306;SDS011;17935;51.120;13.132;2024-02-15T12:10:31;2.13;;;1.90;;
31306;SDS011;17935;51.120;13.132;2024-02-15T12:13:17;3.50;;;1.90;;
31306;SDS011;17935;51.120;13.132;2024-02-15T12:16:03;2.38;;;1.90;;
31306;SDS011;17935;51.120;13.132;2024-02-15T12:18:48;3.20;;;2.13;;
31306;SDS011;17935;51.120;13.132;2024-02-15T12:21:19;2.63;;;2.03;;
31306;SDS011;17935;51.120;13.132;2024-02-15T12:23:51;2.45;;;2.10;;
31306;SDS011;17935;51.120;13.132;2024-02-15T12:26:20;2.72;;;2.00;;
31306;SDS011;17935;51.120;13.132;2024-02-15T12:28:52;5.18;;;2.33;;
31306;SDS011;17935;51.120;13.132;2024-02-15T12:31:23;3.05;;;2.53;;
31306;SDS011;17935;51.120;13.132;2024-02-15T12:34:01;2.30;;;2.10;;
31306;SDS011;17935;51.120;13.132;2024-02-15T12:36:33;3.15;;;2.15;;
31306;SDS011;17935;51.120;13.132;2024-02-15T12:39:07;2.17;;;1.95;;
31306;SDS011;17935;51.120;13.132;2024-02-15T12:41:40;4.97;;;2.25;;
31306;SDS011;17935;51.120;13.132;2024-02-15T12:44:09;5.13;;;2.80;;
31306;SDS011;17935;51.120;13.132;2024-02-15T12:46:35;3.38;;;2.00;;
31306;SDS011;17935;51.120;13.132;2024-02-15T12:51:53;5.85;;;2.10;;
31306;SDS011;17935;51.120;13.132;2024-02-15T12:54:22;3.83;;;2.25;;
31306;SDS011;17935;51.120;13.132;2024-02-15T12:56:48;2.25;;;2.05;;
31306;SDS011;17935;51.120;13.132;2024-02-15T12:59:17;4.90;;;3.03;;
31306;SDS011;17935;51.120;13.132;2024-02-15T13:01:46;5.05;;;2.47;;
31306;SDS011;17935;51.120;13.132;2024-02-15T13:04:23;4.32;;;2.15;;
31306;SDS011;17935;51.120;13.132;2024-02-15T13:06:53;2.40;;;1.90;;
31306;SDS011;17935;51.120;13.132;2024-02-15T13:09:18;3.35;;;2.03;;
31306;SDS011;17935;51.120;13.132;2024-02-15T13:11:44;2.15;;;1.70;;
31306;SDS011;17935;51.120;13.132;2024-02-15T13:14:12;2.03;;;1.83;;
31306;SDS011;17935;51.120;13.132;2024-02-15T13:16:38;2.70;;;1.90;;
31306;SDS011;17935;51.120;13.132;2024-02-15T13:19:03;4.05;;;2.35;;
31306;SDS011;17935;51.120;13.132;2024-02-15T13:21:32;2.50;;;1.65;;
31306;SDS011;17935;51.120;13.132;2024-02-15T13:23:59;3.65;;;2.25;;
31306;SDS011;17935;51.120;13.132;2024-02-15T13:26:25;3.00;;;2.05;;
31306;SDS011;17935;51.120;13.132;2024-02-15T13:28:51;3.22;;;2.20;;
31306;SDS011;17935;51.120;13.132;2024-02-15T13:31:17;5.55;;;2.25;;
31306;SDS011;17935;51.120;13.132;2024-02-15T13:33:43;2.05;;;1.85;;
31306;SDS011;17935;51.120;13.132;2024-02-15T13:36:08;2.50;;;1.65;;
31306;SDS011;17935;51.120;13.132;2024-02-15T13:38:36;5.00;;;2.08;;
31306;SDS011;17935;51.120;13.132;2024-02-15T13:41:02;1.85;;;1.63;;
31306;SDS011;17935;51.120;13.132;2024-02-15T13:43:29;5.50;;;2.35;;
31306;SDS011;17935;51.120;13.132;2024-02-15T13:46:03;6.90;;;2.13;;
31306;SDS011;17935;51.120;13.132;2024-02-15T13:48:29;2.60;;;2.15;;
31306;SDS011;17935;51.120;13.132;2024-02-15T13:50:56;4.05;;;2.22;;
31306;SDS011;17935;51.120;13.132;2024-02-15T13:53:23;4.18;;;1.92;;
31306;SDS011;17935;51.120;13.132;2024-02-15T13:55:49;4.88;;;2.20;;
31306;SDS011;17935;51.120;13.132;2024-02-15T13:58:17;3.17;;;2.10;;
31306;SDS011;17935;51.120;13.132;2024-02-15T14:00:43;5.00;;;2.50;;
31306;SDS011;17935;51.120;13.132;2024-02-15T14:03:10;2.30;;;1.83;;
31306;SDS011;17935;51.120;13.132;2024-02-15T14:05:36;4.43;;;2.25;;
31306;SDS011;17935;51.120;13.132;2024-02-15T14:08:06;4.43;;;1.90;;
31306;SDS011;17935;51.120;13.132;2024-02-15T14:10:39;3.03;;;1.73;;
31306;SDS011;17935;51.120;13.132;2024-02-15T14:13:05;2.90;;;2.03;;
31306;SDS011;17935;51.120;13.132;2024-02-15T14:15:32;4.70;;;2.10;;
31306;SDS011;17935;51.120;13.132;2024-02-15T14:18:05;5.45;;;2.00;;
31306;SDS011;17935;51.120;13.132;2024-02-15T14:20:49;2.55;;;2.10;;
31306;SDS011;17935;51.120;13.132;2024-02-15T14:23:18;3.80;;;1.83;;
31306;SDS011;17935;51.120;13.132;2024-02-15T14:30:56;3.30;;;2.42;;
31306;SDS011;17935;51.120;13.132;2024-02-15T14:33:49;3.75;;;2.40;;
31306;SDS011;17935;51.120;13.132;2024-02-15T14:39:25;3.38;;;2.30;;
31306;SDS011;17935;51.120;13.132;2024-02-15T14:55:32;5.82;;;2.20;;
31306;SDS011;17935;51.120;13.132;2024-02-15T14:58:01;2.40;;;2.20;;
31306;SDS011;17935;51.120;13.132;2024-02-15T15:00:31;4.95;;;2.40;;
31306;SDS011;17935;51.120;13.132;2024-02-15T15:03:00;6.53;;;2.45;;
31306;SDS011;17935;51.120;13.132;2024-02-15T15:05:27;4.40;;;2.20;;
31306;SDS011;17935;51.120;13.132;2024-02-15T15:08:14;3.22;;;2.10;;
31306;SDS011;17935;51.120;13.132;2024-02-15T15:11:05;8.35;;;2.35;;
31306;SDS011;17935;51.120;13.132;2024-02-15T15:13:49;5.53;;;2.85;;
31306;SDS011;17935;51.120;13.132;2024-02-15T15:16:17;5.28;;;3.15;;
31306;SDS011;17935;51.120;13.132;2024-02-15T15:18:46;4.53;;;3.17;;
31306;SDS011;17935;51.120;13.132;2024-02-15T15:21:12;8.07;;;2.78;;
31306;SDS011;17935;51.120;13.132;2024-02-15T15:23:38;5.30;;;2.45;;
31306;SDS011;17935;51.120;13.132;2024-02-15T15:26:04;4.75;;;2.67;;
31306;SDS011;17935;51.120;13.132;2024-02-15T15:28:31;3.05;;;1.90;;
31306;SDS011;17935;51.120;13.132;2024-02-15T15:30:57;3.13;;;2.10;;
31306;SDS011;17935;51.120;13.132;2024-02-15T15:36:35;3.58;;;2.08;;
31306;SDS011;17935;51.120;13.132;2024-02-15T15:42:25;4.07;;;2.40;;
31306;SDS011;17935;51.120;13.132;2024-02-15T15:45:06;3.30;;;2.58;;
31306;SDS011;17935;51.120;13.132;2024-02-15T15:51:30;4.60;;;2.42;;
31306;SDS011;17935;51.120;13.132;2024-02-15T15:54:21;4.72;;;2.58;;
31306;SDS011;17935;51.120;13.132;2024-02-15T16:00:38;2.80;;;1.75;;
31306;SDS011;17935;51.120;13.132;2024-02-15T16:03:13;3.88;;;2.13;;
31306;SDS011;17935;51.120;13.132;2024-02-15T16:06:01;3.92;;;1.88;;
31306;SDS011;17935;51.120;13.132;2024-02-15T16:09:00;5.53;;;2.13;;
31306;SDS011;17935;51.120;13.132;2024-02-15T16:11:44;4.88;;;2.10;;
31306;SDS011;17935;51.120;13.132;2024-02-15T16:20:17;10.57;;;6.53;;
31306;SDS011;17935;51.120;13.132;2024-02-15T16:23:02;8.05;;;5.15;;
31306;SDS011;17935;51.120;13.132;2024-02-15T16:25:51;13.68;;;9.27;;
31306;SDS011;17935;51.120;13.132;2024-02-15T16:28:23;8.02;;;4.82;;
31306;SDS011;17935;51.120;13.132;2024-02-15T16:31:04;6.18;;;4.38;;
31306;SDS011;17935;51.120;13.132;2024-02-15T16:33:54;6.25;;;4.05;;
31306;SDS011;17935;51.120;13.132;2024-02-15T16:36:33;4.07;;;3.28;;
31306;SDS011;17935;51.120;13.132;2024-02-15T16:39:14;3.95;;;3.30;;
31306;SDS011;17935;51.120;13.132;2024-02-15T16:42:07;5.15;;;3.45;;
31306;SDS011;17935;51.120;13.132;2024-02-15T16:44:38;10.68;;;3.60;;
31306;SDS011;17935;51.120;13.132;2024-02-15T16:47:17;6.25;;;4.15;;
31306;SDS011;17935;51.120;13.132;2024-02-15T16:49:49;5.80;;;4.03;;
31306;SDS011;17935;51.120;13.132;2024-02-15T16:52:25;12.25;;;8.27;;
31306;SDS011;17935;51.120;13.132;2024-02-15T16:54:59;4.53;;;4.10;;
31306;SDS011;17935;51.120;13.132;2024-02-15T16:57:28;7.43;;;4.82;;
31306;SDS011;17935;51.120;13.132;2024-02-15T17:00:04;10.43;;;5.00;;
31306;SDS011;17935;51.120;13.132;2024-02-15T17:02:33;10.73;;;5.95;;
31306;SDS011;17935;51.120;13.132;2024-02-15T17:05:00;12.45;;;7.55;;
31306;SDS011;17935;51.120;13.132;2024-02-15T17:07:26;11.65;;;6.40;;
31306;SDS011;17935;51.120;13.132;2024-02-15T17:09:52;12.27;;;8.30;;
31306;SDS011;17935;51.120;13.132;2024-02-15T17:12:18;19.27;;;8.60;;
31306;SDS011;17935;51.120;13.132;2024-02-15T17:14:44;8.43;;;6.00;;
31306;SDS011;17935;51.120;13.132;2024-02-15T17:17:09;8.15;;;5.00;;
31306;SDS011;17935;51.120;13.132;2024-02-15T17:19:35;9.40;;;5.45;;
31306;SDS011;17935;51.120;13.132;2024-02-15T17:22:01;26.30;;;13.63;;
31306;SDS011;17935;51.120;13.132;2024-02-15T17:24:28;25.75;;;14.00;;
31306;SDS011;17935;51.120;13.132;2024-02-15T17:26:56;16.25;;;10.23;;
31306;SDS011;17935;51.120;13.132;2024-02-15T17:29:21;15.82;;;9.30;;
31306;SDS011;17935;51.120;13.132;2024-02-15T17:31:53;16.33;;;9.20;;
31306;SDS011;17935;51.120;13.132;2024-02-15T17:34:22;14.75;;;8.48;;
31306;SDS011;17935;51.120;13.132;2024-02-15T17:36:54;13.38;;;7.80;;
31306;SDS011;17935;51.120;13.132;2024-02-15T17:39:30;16.52;;;9.77;;
31306;SDS011;17935;51.120;13.132;2024-02-15T17:41:58;14.10;;;10.20;;
31306;SDS011;17935;51.120;13.132;2024-02-15T17:44:24;14.07;;;10.10;;
31306;SDS011;17935;51.120;13.132;2024-02-15T17:46:49;10.40;;;7.10;;
31306;SDS011;17935;51.120;13.132;2024-02-15T17:49:25;10.05;;;6.85;;
31306;SDS011;17935;51.120;13.132;2024-02-15T17:51:54;8.63;;;6.25;;
31306;SDS011;17935;51.120;13.132;2024-02-15T17:54:19;14.02;;;7.38;;
31306;SDS011;17935;51.120;13.132;2024-02-15T17:56:45;70.57;;;28.80;;
31306;SDS011;17935;51.120;13.132;2024-02-15T17:59:13;57.00;;;27.80;;
31306;SDS011;17935;51.120;13.132;2024-02-15T18:01:38;50.78;;;24.58;;
31306;SDS011;17935;51.120;13.132;2024-02-15T18:04:07;35.83;;;17.10;;
31306;SDS011;17935;51.120;13.132;2024-02-15T18:06:32;18.98;;;11.85;;
31306;SDS011;17935;51.120;13.132;2024-02-15T18:09:00;14.73;;;8.48;;
31306;SDS011;17935;51.120;13.132;2024-02-15T18:11:26;11.32;;;7.38;;
31306;SDS011;17935;51.120;13.132;2024-02-15T18:13:54;12.75;;;6.57;;
31306;SDS011;17935;51.120;13.132;2024-02-15T18:16:25;7.43;;;5.53;;
31306;SDS011;17935;51.120;13.132;2024-02-15T18:18:54;17.65;;;6.70;;
31306;SDS011;17935;51.120;13.132;2024-02-15T18:21:20;7.53;;;5.53;;
31306;SDS011;17935;51.120;13.132;2024-02-15T18:23:46;7.40;;;5.80;;
31306;SDS011;17935;51.120;13.132;2024-02-15T18:26:15;8.80;;;5.88;;
31306;SDS011;17935;51.120;13.132;2024-02-15T18:28:41;9.90;;;7.15;;
31306;SDS011;17935;51.120;13.132;2024-02-15T18:31:17;8.52;;;5.05;;
31306;SDS011;17935;51.120;13.132;2024-02-15T18:33:43;7.40;;;5.35;;
31306;SDS011;17935;51.120;13.132;2024-02-15T18:36:09;10.57;;;5.90;;
31306;SDS011;17935;51.120;13.132;2024-02-15T18:38:34;10.27;;;6.47;;
31306;SDS011;17935;51.120;13.132;2024-02-15T18:41:00;7.82;;;5.68;;
31306;SDS011;17935;51.120;13.132;2024-02-15T18:43:30;6.57;;;4.78;;
31306;SDS011;17935;51.120;13.132;2024-02-15T18:45:59;7.35;;;5.03;;
31306;SDS011;17935;51.120;13.132;2024-02-15T18:48:26;6.47;;;4.80;;